Aérodrome :
LOGIN :

S'inscrire | Disclaimer

   EN    FR    IT 

 










Légende :    VFR   VFR Marginal   IFR   IFR Intensif   IFR Très Intensif
Visi : 
Plafond : 
>= 8 km
>= 3000ft
5 à 8 km
1000 à 3000 ft
1500m à 5 km
500 à 1000 ft
800 à 1500m
200 à 500 ft
< 800m
< 200 ft
Symboles :   Orages  Brouillard  Fortes neiges  Fortes précipitations  Vent > 20 kt
SIGMETs :   Divers  Orages  Givrage  Turbulence  Onde Orograph.  Cendres Volcan.







- Altitude de l'aérodrome : 39 ft
- Code IATA : CTA


LICC - Catania Fontanarossa

DERNIER METAR :
  • 140750Z 28013KT CAVOK 12/05 Q1021

METARs EXPIRÉS :
  • 140720Z 27012KT CAVOK 11/05 Q1021
  • 140650Z 29006KT CAVOK 09/05 Q1021
  • 140620Z 28006KT 260V320 CAVOK 07/05 Q1021
  • 140550Z 27008KT CAVOK 08/05 Q1021

TAF TAF LICC
Valide du 14 à 06h jusqu'au 15 à 06h UTC


140500Z 1406/1506 27012KT CAVOK
Pas de NOTAMs connus pour ce terrain.
1 SIGMET publié pour la FIR Roma (LIRR) :
 
Turbulence forte
LIRR SIGMET 1 VALID 140750/140900 LIIB
LIRR ROMA FIR SEV TURB FCST WI N4009 E00805 - N4107 E01503 - N4126 E01423 - N4255 E01302 - N4328 E01312 - N4340 E01055 - N4333 E01022 - N4310 E00949 - N4121 E00945 - N4117 E00822 - N4102 E00804 - N4009 E00805 FL020/100 STNR NC=



MET'MAP, la Météo Aéronautique d'un coup d'oeil ! - Copyright ORBIFLY Décembre 2007 - Disclaimer

ORBIFLY MET'MAP TEAM :

Programmation & Développement : Alexandra Zaïnal
Conception & Développement : Baudouin d'Aumeries
Co-Programmation & Développement : Marc-Olivier Méhu
Soutien technique & logistique : Manuel Goepfert

Contact : metmap@orbifly.com




SOURCES & CREDITS :

   NOAA